Aviation Digital Data Service (ADDS)

Output produced by METARs form (1133 UTC 21 February 2018)
found at http://aviationweather.gov/adds/metars/
 
KLBE 201144Z 2012/2112 22012KT P6SM BKN040 WS020/22040KT 
     FM201600 22017G25KT P6SM SCT040 
     FM202200 18010KT P6SM BKN250